sensor_id;sensor_type;location;lat;lon;timestamp;pressure;altitude;pressure_sealevel;temperature;humidity
4022;BME280;2025;48.260;16.432;2022-09-09T00:00:19;99429.81;;;14.04;100.00
4022;BME280;2025;48.260;16.432;2022-09-09T00:02:57;99435.94;;;14.06;100.00
4022;BME280;2025;48.260;16.432;2022-09-09T00:05:36;99435.97;;;14.05;100.00
4022;BME280;2025;48.260;16.432;2022-09-09T00:08:17;99431.59;;;14.04;100.00
4022;BME280;2025;48.260;16.432;2022-09-09T00:10:50;99441.31;;;13.97;100.00
4022;BME280;2025;48.260;16.432;2022-09-09T00:13:24;99439.59;;;13.93;100.00
4022;BME280;2025;48.260;16.432;2022-09-09T00:15:57;99441.31;;;13.96;100.00
4022;BME280;2025;48.260;16.432;2022-09-09T00:18:29;99442.19;;;13.98;100.00
4022;BME280;2025;48.260;16.432;2022-09-09T00:21:05;99441.19;;;14.09;100.00
4022;BME280;2025;48.260;16.432;2022-09-09T00:23:34;99447.34;;;14.08;100.00
4022;BME280;2025;48.260;16.432;2022-09-09T00:26:08;99444.75;;;14.05;100.00
4022;BME280;2025;48.260;16.432;2022-09-09T00:28:39;99441.28;;;13.99;100.00
4022;BME280;2025;48.260;16.432;2022-09-09T00:31:13;99442.22;;;13.93;100.00
4022;BME280;2025;48.260;16.432;2022-09-09T00:33:41;99435.16;;;13.97;100.00
4022;BME280;2025;48.260;16.432;2022-09-09T00:36:13;99437.69;;;14.07;100.00
4022;BME280;2025;48.260;16.432;2022-09-09T00:38:45;99431.59;;;14.02;100.00
4022;BME280;2025;48.260;16.432;2022-09-09T00:41:18;99421.16;;;13.95;100.00
4022;BME280;2025;48.260;16.432;2022-09-09T00:43:55;99426.44;;;13.92;100.00
4022;BME280;2025;48.260;16.432;2022-09-09T00:46:51;99437.88;;;13.86;100.00
4022;BME280;2025;48.260;16.432;2022-09-09T00:49:32;99433.56;;;13.79;100.00
4022;BME280;2025;48.260;16.432;2022-09-09T00:52:18;99420.41;;;13.79;100.00
4022;BME280;2025;48.260;16.432;2022-09-09T00:54:54;99434.44;;;13.78;100.00
4022;BME280;2025;48.260;16.432;2022-09-09T00:57:28;99440.56;;;13.81;100.00
4022;BME280;2025;48.260;16.432;2022-09-09T01:00:00;99446.78;;;13.73;100.00
4022;BME280;2025;48.260;16.432;2022-09-09T01:02:35;99445.94;;;13.68;100.00
4022;BME280;2025;48.260;16.432;2022-09-09T01:05:10;99444.16;;;13.73;100.00
4022;BME280;2025;48.260;16.432;2022-09-09T01:07:44;99449.47;;;13.67;100.00
4022;BME280;2025;48.260;16.432;2022-09-09T01:10:21;99457.41;;;13.61;100.00
4022;BME280;2025;48.260;16.432;2022-09-09T01:12:56;99456.53;;;13.63;100.00
4022;BME280;2025;48.260;16.432;2022-09-09T01:15:27;99448.59;;;13.66;100.00
4022;BME280;2025;48.260;16.432;2022-09-09T01:18:00;99461.78;;;13.65;100.00
4022;BME280;2025;48.260;16.432;2022-09-09T01:20:32;99460.06;;;13.61;100.00
4022;BME280;2025;48.260;16.432;2022-09-09T01:23:28;99460.88;;;13.69;100.00
4022;BME280;2025;48.260;16.432;2022-09-09T01:29:00;99463.50;;;13.69;100.00
4022;BME280;2025;48.260;16.432;2022-09-09T01:31:28;99470.53;;;13.65;100.00
4022;BME280;2025;48.260;16.432;2022-09-09T01:33:57;99474.91;;;13.68;100.00
4022;BME280;2025;48.260;16.432;2022-09-09T01:36:29;99464.38;;;13.69;100.00
4022;BME280;2025;48.260;16.432;2022-09-09T01:38:59;99478.34;;;13.76;100.00
4022;BME280;2025;48.260;16.432;2022-09-09T01:41:26;99473.09;;;13.76;100.00
4022;BME280;2025;48.260;16.432;2022-09-09T01:43:54;99479.28;;;13.70;100.00
4022;BME280;2025;48.260;16.432;2022-09-09T01:46:23;99468.72;;;13.75;100.00
4022;BME280;2025;48.260;16.432;2022-09-09T01:48:51;99480.16;;;13.71;100.00
4022;BME280;2025;48.260;16.432;2022-09-09T01:51:19;99476.66;;;13.67;100.00
4022;BME280;2025;48.260;16.432;2022-09-09T01:53:46;99470.59;;;13.59;100.00
4022;BME280;2025;48.260;16.432;2022-09-09T01:56:21;99476.69;;;13.66;100.00
4022;BME280;2025;48.260;16.432;2022-09-09T01:59:03;99479.34;;;13.61;100.00
4022;BME280;2025;48.260;16.432;2022-09-09T02:01:42;99481.13;;;13.61;100.00
4022;BME280;2025;48.260;16.432;2022-09-09T02:04:23;99480.31;;;13.49;100.00
4022;BME280;2025;48.260;16.432;2022-09-09T02:06:55;99478.59;;;13.48;100.00
4022;BME280;2025;48.260;16.432;2022-09-09T02:09:24;99475.91;;;13.52;100.00
4022;BME280;2025;48.260;16.432;2022-09-09T02:11:57;99470.69;;;13.48;100.00
4022;BME280;2025;48.260;16.432;2022-09-09T02:14:30;99472.44;;;13.48;100.00
4022;BME280;2025;48.260;16.432;2022-09-09T02:17:05;99471.56;;;13.46;100.00
4022;BME280;2025;48.260;16.432;2022-09-09T02:19:37;99471.63;;;13.38;100.00
4022;BME280;2025;48.260;16.432;2022-09-09T02:22:05;99463.75;;;13.35;100.00
4022;BME280;2025;48.260;16.432;2022-09-09T02:24:38;99459.38;;;13.36;100.00
4022;BME280;2025;48.260;16.432;2022-09-09T02:27:07;99461.13;;;13.35;100.00
4022;BME280;2025;48.260;16.432;2022-09-09T02:29:38;99461.13;;;13.38;100.00
4022;BME280;2025;48.260;16.432;2022-09-09T02:32:11;99457.59;;;13.41;100.00
4022;BME280;2025;48.260;16.432;2022-09-09T02:34:43;99457.59;;;13.38;100.00
4022;BME280;2025;48.260;16.432;2022-09-09T02:37:12;99466.38;;;13.38;100.00
4022;BME280;2025;48.260;16.432;2022-09-09T02:39:41;99470.78;;;13.36;100.00
4022;BME280;2025;48.260;16.432;2022-09-09T02:42:09;99474.31;;;13.32;100.00
4022;BME280;2025;48.260;16.432;2022-09-09T02:44:36;99478.75;;;13.24;100.00
4022;BME280;2025;48.260;16.432;2022-09-09T02:47:32;99481.41;;;13.18;100.00
4022;BME280;2025;48.260;16.432;2022-09-09T02:50:10;99479.69;;;13.17;100.00
4022;BME280;2025;48.260;16.432;2022-09-09T02:52:46;99484.81;;;13.35;100.00
4022;BME280;2025;48.260;16.432;2022-09-09T02:55:18;99480.41;;;13.37;100.00
4022;BME280;2025;48.260;16.432;2022-09-09T02:57:48;99485.72;;;13.30;100.00
4022;BME280;2025;48.260;16.432;2022-09-09T03:00:22;99475.16;;;13.37;100.00
4022;BME280;2025;48.260;16.432;2022-09-09T03:02:51;99485.75;;;13.27;100.00
4022;BME280;2025;48.260;16.432;2022-09-09T03:05:20;99489.28;;;13.21;100.00
4022;BME280;2025;48.260;16.432;2022-09-09T03:07:47;99488.44;;;13.21;100.00
4022;BME280;2025;48.260;16.432;2022-09-09T03:10:15;99491.91;;;13.23;100.00
4022;BME280;2025;48.260;16.432;2022-09-09T03:12:42;99489.25;;;13.27;100.00
4022;BME280;2025;48.260;16.432;2022-09-09T03:15:09;99478.66;;;13.39;100.00
4022;BME280;2025;48.260;16.432;2022-09-09T03:17:36;99491.78;;;13.42;100.00
4022;BME280;2025;48.260;16.432;2022-09-09T03:20:05;99483.91;;;13.39;100.00
4022;BME280;2025;48.260;16.432;2022-09-09T03:22:32;99480.41;;;13.39;100.00
4022;BME280;2025;48.260;16.432;2022-09-09T03:25:00;99482.19;;;13.35;100.00
4022;BME280;2025;48.260;16.432;2022-09-09T03:27:27;99491.81;;;13.39;100.00
4022;BME280;2025;48.260;16.432;2022-09-09T03:29:54;99485.63;;;13.43;100.00
4022;BME280;2025;48.260;16.432;2022-09-09T03:32:21;99486.53;;;13.39;100.00
4022;BME280;2025;48.260;16.432;2022-09-09T03:34:49;99481.31;;;13.36;100.00
4022;BME280;2025;48.260;16.432;2022-09-09T03:37:18;99480.44;;;13.36;100.00
4022;BME280;2025;48.260;16.432;2022-09-09T03:39:45;99469.00;;;13.38;100.00
4022;BME280;2025;48.260;16.432;2022-09-09T03:42:12;99472.56;;;13.33;100.00
4022;BME280;2025;48.260;16.432;2022-09-09T03:44:44;99472.56;;;13.30;100.00
4022;BME280;2025;48.260;16.432;2022-09-09T03:47:12;99462.03;;;13.33;100.00
4022;BME280;2025;48.260;16.432;2022-09-09T03:49:39;99460.31;;;13.29;100.00
4022;BME280;2025;48.260;16.432;2022-09-09T03:52:07;99473.50;;;13.24;100.00
4022;BME280;2025;48.260;16.432;2022-09-09T03:54:36;99477.03;;;13.20;100.00
4022;BME280;2025;48.260;16.432;2022-09-09T03:57:03;99491.94;;;13.13;100.00
4022;BME280;2025;48.260;16.432;2022-09-09T03:59:31;99478.81;;;13.09;100.00
4022;BME280;2025;48.260;16.432;2022-09-09T04:01:58;99477.06;;;13.08;100.00
4022;BME280;2025;48.260;16.432;2022-09-09T04:04:25;99469.19;;;13.05;100.00
4022;BME280;2025;48.260;16.432;2022-09-09T04:06:53;99470.94;;;13.06;100.00
4022;BME280;2025;48.260;16.432;2022-09-09T04:09:20;99480.59;;;13.04;100.00
4022;BME280;2025;48.260;16.432;2022-09-09T04:11:48;99487.63;;;13.03;100.00
4022;BME280;2025;48.260;16.432;2022-09-09T04:14:15;99493.78;;;12.96;100.00
4022;BME280;2025;48.260;16.432;2022-09-09T04:16:42;99492.06;;;12.91;100.00
4022;BME280;2025;48.260;16.432;2022-09-09T04:19:10;99496.34;;;13.10;100.00
4022;BME280;2025;48.260;16.432;2022-09-09T04:21:40;99484.94;;;13.11;100.00
4022;BME280;2025;48.260;16.432;2022-09-09T04:24:08;99485.88;;;13.01;100.00
4022;BME280;2025;48.260;16.432;2022-09-09T04:26:36;99485.06;;;12.88;100.00
4022;BME280;2025;48.260;16.432;2022-09-09T04:29:04;99489.47;;;12.83;100.00
4022;BME280;2025;48.260;16.432;2022-09-09T04:31:32;99488.63;;;12.79;100.00
4022;BME280;2025;48.260;16.432;2022-09-09T04:33:59;99489.53;;;12.72;100.00
4022;BME280;2025;48.260;16.432;2022-09-09T04:36:30;99498.28;;;12.74;100.00
4022;BME280;2025;48.260;16.432;2022-09-09T04:38:58;99500.88;;;12.79;100.00
4022;BME280;2025;48.260;16.432;2022-09-09T04:41:25;99500.00;;;12.78;100.00
4022;BME280;2025;48.260;16.432;2022-09-09T04:43:52;99507.03;;;12.73;100.00
4022;BME280;2025;48.260;16.432;2022-09-09T04:46:21;99512.31;;;12.70;100.00
4022;BME280;2025;48.260;16.432;2022-09-09T04:48:49;99509.69;;;12.72;100.00
4022;BME280;2025;48.260;16.432;2022-09-09T04:51:17;99507.94;;;12.72;100.00
4022;BME280;2025;48.260;16.432;2022-09-09T04:53:44;99517.53;;;12.79;100.00
4022;BME280;2025;48.260;16.432;2022-09-09T04:56:14;99514.88;;;12.84;100.00
4022;BME280;2025;48.260;16.432;2022-09-09T04:58:41;99510.53;;;12.78;100.00
4022;BME280;2025;48.260;16.432;2022-09-09T05:01:09;99511.44;;;12.74;100.00
4022;BME280;2025;48.260;16.432;2022-09-09T05:03:38;99522.81;;;12.76;100.00
4022;BME280;2025;48.260;16.432;2022-09-09T05:06:06;99514.03;;;12.80;100.00
4022;BME280;2025;48.260;16.432;2022-09-09T05:08:35;99521.91;;;12.83;100.00
4022;BME280;2025;48.260;16.432;2022-09-09T05:11:02;99523.63;;;12.89;100.00
4022;BME280;2025;48.260;16.432;2022-09-09T05:13:29;99519.19;;;12.99;100.00
4022;BME280;2025;48.260;16.432;2022-09-09T05:15:57;99524.44;;;13.02;100.00
4022;BME280;2025;48.260;16.432;2022-09-09T05:18:24;99521.78;;;13.06;100.00
4022;BME280;2025;48.260;16.432;2022-09-09T05:20:52;99527.03;;;13.09;100.00
4022;BME280;2025;48.260;16.432;2022-09-09T05:23:24;99516.50;;;13.11;100.00
4022;BME280;2025;48.260;16.432;2022-09-09T05:25:55;99520.00;;;13.16;100.00
4022;BME280;2025;48.260;16.432;2022-09-09T05:28:23;99523.47;;;13.24;100.00
4022;BME280;2025;48.260;16.432;2022-09-09T05:30:58;99526.06;;;13.32;100.00
4022;BME280;2025;48.260;16.432;2022-09-09T05:33:26;99530.44;;;13.31;100.00
4022;BME280;2025;48.260;16.432;2022-09-09T05:35:59;99521.66;;;13.35;100.00
4022;BME280;2025;48.260;16.432;2022-09-09T05:38:27;99527.78;;;13.37;100.00
4022;BME280;2025;48.260;16.432;2022-09-09T05:40:54;99524.22;;;13.47;100.00
4022;BME280;2025;48.260;16.432;2022-09-09T05:43:22;99528.50;;;13.62;100.00
4022;BME280;2025;48.260;16.432;2022-09-09T05:45:59;99530.09;;;13.81;100.00
4022;BME280;2025;48.260;16.432;2022-09-09T05:48:28;99534.38;;;13.96;100.00
4022;BME280;2025;48.260;16.432;2022-09-09T05:50:55;99531.63;;;14.10;100.00
4022;BME280;2025;48.260;16.432;2022-09-09T05:53:23;99525.31;;;14.26;100.00
4022;BME280;2025;48.260;16.432;2022-09-09T05:55:57;99514.63;;;14.40;100.00
4022;BME280;2025;48.260;16.432;2022-09-09T05:58:24;99523.28;;;14.57;100.00
4022;BME280;2025;48.260;16.432;2022-09-09T06:00:51;99518.75;;;14.67;100.00
4022;BME280;2025;48.260;16.432;2022-09-09T06:03:18;99517.75;;;14.77;100.00
4022;BME280;2025;48.260;16.432;2022-09-09T06:05:57;99524.66;;;14.89;100.00
4022;BME280;2025;48.260;16.432;2022-09-09T06:08:25;99526.31;;;14.96;100.00
4022;BME280;2025;48.260;16.432;2022-09-09T06:10:52;99521.88;;;14.99;100.00
4022;BME280;2025;48.260;16.432;2022-09-09T06:13:19;99524.41;;;15.07;100.00
4022;BME280;2025;48.260;16.432;2022-09-09T06:15:49;99517.31;;;15.12;100.00
4022;BME280;2025;48.260;16.432;2022-09-09T06:18:17;99509.38;;;15.14;100.00
4022;BME280;2025;48.260;16.432;2022-09-09T06:20:54;99511.06;;;15.19;100.00
4022;BME280;2025;48.260;16.432;2022-09-09T06:23:21;99510.13;;;15.22;100.00
4022;BME280;2025;48.260;16.432;2022-09-09T06:25:49;99513.53;;;15.30;100.00
4022;BME280;2025;48.260;16.432;2022-09-09T06:28:17;99520.44;;;15.40;100.00
4022;BME280;2025;48.260;16.432;2022-09-09T06:30:44;99527.38;;;15.46;100.00
4022;BME280;2025;48.260;16.432;2022-09-09T06:33:12;99531.63;;;15.60;100.00
4022;BME280;2025;48.260;16.432;2022-09-09T06:35:39;99519.84;;;15.81;100.00
4022;BME280;2025;48.260;16.432;2022-09-09T06:38:06;99512.59;;;15.94;100.00
4022;BME280;2025;48.260;16.432;2022-09-09T06:40:34;99522.06;;;16.06;100.00
4022;BME280;2025;48.260;16.432;2022-09-09T06:43:02;99533.38;;;16.14;100.00
4022;BME280;2025;48.260;16.432;2022-09-09T06:45:29;99529.53;;;16.33;100.00
4022;BME280;2025;48.260;16.432;2022-09-09T06:47:56;99526.63;;;16.47;100.00
4022;BME280;2025;48.260;16.432;2022-09-09T06:50:23;99579.44;;;16.50;100.00
4022;BME280;2025;48.260;16.432;2022-09-09T06:52:50;99580.09;;;16.62;100.00
4022;BME280;2025;48.260;16.432;2022-09-09T06:55:21;99616.81;;;16.81;100.00
4022;BME280;2025;48.260;16.432;2022-09-09T06:57:58;99627.16;;;16.93;100.00
4022;BME280;2025;48.260;16.432;2022-09-09T07:00:39;99624.41;;;16.99;100.00
4022;BME280;2025;48.260;16.432;2022-09-09T07:03:12;99631.41;;;17.02;100.00
4022;BME280;2025;48.260;16.432;2022-09-09T07:05:42;99635.66;;;17.10;100.00
4022;BME280;2025;48.260;16.432;2022-09-09T07:08:11;99638.09;;;17.21;100.00
4022;BME280;2025;48.260;16.432;2022-09-09T07:11:04;99655.50;;;17.32;100.00
4022;BME280;2025;48.260;16.432;2022-09-09T07:13:40;99677.19;;;17.53;100.00
4022;BME280;2025;48.260;16.432;2022-09-09T07:16:15;99684.59;;;17.79;100.00
4022;BME280;2025;48.260;16.432;2022-09-09T07:18:42;99703.53;;;18.02;100.00
4022;BME280;2025;48.260;16.432;2022-09-09T07:21:14;99701.03;;;17.94;100.00
4022;BME280;2025;48.260;16.432;2022-09-09T07:23:44;99690.13;;;18.08;100.00
4022;BME280;2025;48.260;16.432;2022-09-09T07:26:14;99708.03;;;17.99;100.00
4022;BME280;2025;48.260;16.432;2022-09-09T07:28:54;99710.88;;;17.89;100.00
4022;BME280;2025;48.260;16.432;2022-09-09T07:31:35;99706.34;;;17.94;100.00
4022;BME280;2025;48.260;16.432;2022-09-09T07:34:14;99706.38;;;17.93;100.00
4022;BME280;2025;48.260;16.432;2022-09-09T07:36:48;99708.75;;;18.05;100.00
4022;BME280;2025;48.260;16.432;2022-09-09T07:39:20;99705.22;;;18.05;100.00
4022;BME280;2025;48.260;16.432;2022-09-09T07:41:47;99695.25;;;18.16;100.00
4022;BME280;2025;48.260;16.432;2022-09-09T07:44:18;99698.75;;;18.18;100.00
4022;BME280;2025;48.260;16.432;2022-09-09T07:46:53;99699.22;;;18.35;100.00
4022;BME280;2025;48.260;16.432;2022-09-09T07:49:20;99706.94;;;18.44;100.00
4022;BME280;2025;48.260;16.432;2022-09-09T07:51:48;99713.78;;;18.54;100.00
4022;BME280;2025;48.260;16.432;2022-09-09T07:54:17;99720.59;;;18.66;100.00
4022;BME280;2025;48.260;16.432;2022-09-09T07:56:46;99718.13;;;18.94;100.00
4022;BME280;2025;48.260;16.432;2022-09-09T07:59:15;99725.00;;;19.01;100.00
4022;BME280;2025;48.260;16.432;2022-09-09T08:01:43;99718.66;;;19.08;100.00
4022;BME280;2025;48.260;16.432;2022-09-09T08:04:14;99728.06;;;19.20;100.00
4022;BME280;2025;48.260;16.432;2022-09-09T08:06:43;99731.72;;;19.16;100.00
4022;BME280;2025;48.260;16.432;2022-09-09T08:09:12;99734.84;;;19.32;100.00
4022;BME280;2025;48.260;16.432;2022-09-09T08:11:40;99728.69;;;19.30;100.00
4022;BME280;2025;48.260;16.432;2022-09-09T08:14:09;99728.03;;;19.21;100.00
4022;BME280;2025;48.260;16.432;2022-09-09T08:16:38;99738.47;;;19.29;100.00
4022;BME280;2025;48.260;16.432;2022-09-09T08:19:05;99736.75;;;19.59;100.00
4022;BME280;2025;48.260;16.432;2022-09-09T08:21:36;99744.56;;;19.65;100.00
4022;BME280;2025;48.260;16.432;2022-09-09T08:24:04;99744.91;;;19.51;100.00
4022;BME280;2025;48.260;16.432;2022-09-09T08:26:34;99739.66;;;19.50;100.00
4022;BME280;2025;48.260;16.432;2022-09-09T08:29:03;99732.53;;;19.83;100.00
4022;BME280;2025;48.260;16.432;2022-09-09T08:31:32;99727.47;;;19.74;100.00
4022;BME280;2025;48.260;16.432;2022-09-09T08:33:59;99732.53;;;19.83;100.00
4022;BME280;2025;48.260;16.432;2022-09-09T08:36:28;99744.44;;;19.99;100.00
4022;BME280;2025;48.260;16.432;2022-09-09T08:38:57;99748.75;;;20.03;100.00
4022;BME280;2025;48.260;16.432;2022-09-09T08:41:45;99753.75;;;20.14;100.00
4022;BME280;2025;48.260;16.432;2022-09-09T08:44:18;99740.41;;;20.15;100.00
4022;BME280;2025;48.260;16.432;2022-09-09T08:46:58;99736.63;;;20.23;100.00
4022;BME280;2025;48.260;16.432;2022-09-09T08:49:42;99735.75;;;20.22;100.00
4022;BME280;2025;48.260;16.432;2022-09-09T08:52:17;99736.81;;;20.46;100.00
4022;BME280;2025;48.260;16.432;2022-09-09T08:54:47;99733.91;;;20.80;100.00
4022;BME280;2025;48.260;16.432;2022-09-09T08:57:19;99725.81;;;20.85;100.00
4022;BME280;2025;48.260;16.432;2022-09-09T08:59:47;99726.13;;;20.47;100.00
4022;BME280;2025;48.260;16.432;2022-09-09T09:02:21;99731.25;;;20.54;100.00
4022;BME280;2025;48.260;16.432;2022-09-09T09:05:06;99729.41;;;20.56;100.00
4022;BME280;2025;48.260;16.432;2022-09-09T09:07:45;99729.91;;;20.67;100.00
4022;BME280;2025;48.260;16.432;2022-09-09T09:10:33;99729.66;;;20.74;100.00
4022;BME280;2025;48.260;16.432;2022-09-09T09:13:08;99714.69;;;21.25;100.00
4022;BME280;2025;48.260;16.432;2022-09-09T09:15:41;99707.59;;;21.49;100.00
4022;BME280;2025;48.260;16.432;2022-09-09T09:18:11;99697.41;;;21.60;100.00
4022;BME280;2025;48.260;16.432;2022-09-09T09:20:46;99696.22;;;21.43;100.00
4022;BME280;2025;48.260;16.432;2022-09-09T09:23:22;99708.75;;;21.65;100.00
4022;BME280;2025;48.260;16.432;2022-09-09T09:25:52;99698.56;;;21.53;100.00
4022;BME280;2025;48.260;16.432;2022-09-09T09:28:44;99704.53;;;21.59;100.00
4022;BME280;2025;48.260;16.432;2022-09-09T09:31:13;99704.47;;;21.61;100.00
4022;BME280;2025;48.260;16.432;2022-09-09T09:33:46;99702.13;;;21.98;100.00
4022;BME280;2025;48.260;16.432;2022-09-09T09:36:15;99693.97;;;22.03;100.00
4022;BME280;2025;48.260;16.432;2022-09-09T09:38:53;99687.00;;;22.44;100.00
4022;BME280;2025;48.260;16.432;2022-09-09T09:41:33;99695.44;;;22.77;100.00
4022;BME280;2025;48.260;16.432;2022-09-09T09:44:01;99690.88;;;23.01;100.00
4022;BME280;2025;48.260;16.432;2022-09-09T09:46:30;99685.66;;;23.18;100.00
4022;BME280;2025;48.260;16.432;2022-09-09T09:48:59;99678.25;;;23.25;100.00
4022;BME280;2025;48.260;16.432;2022-09-09T09:51:28;99686.81;;;23.52;100.00
4022;BME280;2025;48.260;16.432;2022-09-09T09:54:08;99683.19;;;23.34;100.00
4022;BME280;2025;48.260;16.432;2022-09-09T09:56:37;99682.81;;;23.62;100.00
4022;BME280;2025;48.260;16.432;2022-09-09T09:59:05;99671.13;;;23.64;100.00
4022;BME280;2025;48.260;16.432;2022-09-09T10:01:32;99673.56;;;23.69;100.00
4022;BME280;2025;48.260;16.432;2022-09-09T10:04:02;99676.09;;;23.13;100.00
4022;BME280;2025;48.260;16.432;2022-09-09T10:06:31;99666.63;;;23.26;100.00
4022;BME280;2025;48.260;16.432;2022-09-09T10:08:59;99666.34;;;23.71;100.00
4022;BME280;2025;48.260;16.432;2022-09-09T10:11:38;99663.72;;;23.30;100.00
4022;BME280;2025;48.260;16.432;2022-09-09T10:14:15;99674.66;;;23.65;100.00
4022;BME280;2025;48.260;16.432;2022-09-09T10:16:54;99677.50;;;23.81;100.00
4022;BME280;2025;48.260;16.432;2022-09-09T10:19:30;99683.03;;;23.37;100.00
4022;BME280;2025;48.260;16.432;2022-09-09T10:22:04;99675.31;;;23.11;100.00
4022;BME280;2025;48.260;16.432;2022-09-09T10:25:00;99677.41;;;23.43;100.00
4022;BME280;2025;48.260;16.432;2022-09-09T10:27:40;99676.59;;;24.18;100.00
4022;BME280;2025;48.260;16.432;2022-09-09T10:30:14;99676.00;;;24.32;100.00
4022;BME280;2025;48.260;16.432;2022-09-09T10:32:53;99669.50;;;25.41;100.00
4022;BME280;2025;48.260;16.432;2022-09-09T10:35:29;99669.56;;;25.06;90.94
4022;BME280;2025;48.260;16.432;2022-09-09T10:38:15;99673.66;;;25.46;84.04
4022;BME280;2025;48.260;16.432;2022-09-09T10:41:10;99685.28;;;24.23;90.71
4022;BME280;2025;48.260;16.432;2022-09-09T10:43:50;99676.63;;;24.37;100.00
4022;BME280;2025;48.260;16.432;2022-09-09T10:46:28;99673.66;;;24.05;100.00
4022;BME280;2025;48.260;16.432;2022-09-09T10:49:10;99668.97;;;23.52;100.00
4022;BME280;2025;48.260;16.432;2022-09-09T10:51:46;99673.06;;;24.17;100.00
4022;BME280;2025;48.260;16.432;2022-09-09T10:54:28;99671.25;;;24.18;100.00
4022;BME280;2025;48.260;16.432;2022-09-09T10:57:04;99673.06;;;24.17;100.00
4022;BME280;2025;48.260;16.432;2022-09-09T10:59:36;99682.34;;;24.65;100.00
4022;BME280;2025;48.260;16.432;2022-09-09T11:02:13;99681.22;;;25.05;100.00
4022;BME280;2025;48.260;16.432;2022-09-09T11:04:49;99689.00;;;24.75;100.00
4022;BME280;2025;48.260;16.432;2022-09-09T11:07:25;99694.78;;;24.49;100.00
4022;BME280;2025;48.260;16.432;2022-09-09T11:09:59;99685.81;;;23.75;100.00
4022;BME280;2025;48.260;16.432;2022-09-09T11:12:30;99691.59;;;24.03;100.00
4022;BME280;2025;48.260;16.432;2022-09-09T11:15:05;99674.31;;;23.73;100.00
4022;BME280;2025;48.260;16.432;2022-09-09T11:17:40;99682.25;;;24.12;100.00
4022;BME280;2025;48.260;16.432;2022-09-09T11:20:13;99682.47;;;24.07;100.00
4022;BME280;2025;48.260;16.432;2022-09-09T11:22:46;99682.63;;;23.85;100.00
4022;BME280;2025;48.260;16.432;2022-09-09T11:25:16;99673.28;;;23.56;100.00
4022;BME280;2025;48.260;16.432;2022-09-09T11:27:57;99681.03;;;23.42;100.00
4022;BME280;2025;48.260;16.432;2022-09-09T11:30:36;99664.88;;;23.25;100.00
4022;BME280;2025;48.260;16.432;2022-09-09T11:33:24;99677.97;;;23.31;100.00
4022;BME280;2025;48.260;16.432;2022-09-09T11:38:49;99674.75;;;23.43;100.00
4022;BME280;2025;48.260;16.432;2022-09-09T11:41:18;99676.63;;;23.80;100.00
4022;BME280;2025;48.260;16.432;2022-09-09T11:43:48;99670.72;;;23.53;100.00
4022;BME280;2025;48.260;16.432;2022-09-09T11:46:20;99665.63;;;23.47;100.00
4022;BME280;2025;48.260;16.432;2022-09-09T11:48:59;99660.63;;;23.60;100.00
4022;BME280;2025;48.260;16.432;2022-09-09T11:51:28;99657.75;;;23.64;100.00
4022;BME280;2025;48.260;16.432;2022-09-09T11:53:57;99657.31;;;23.74;100.00
4022;BME280;2025;48.260;16.432;2022-09-09T11:56:29;99654.19;;;24.02;100.00
4022;BME280;2025;48.260;16.432;2022-09-09T11:58:59;99656.34;;;24.50;100.00
4022;BME280;2025;48.260;16.432;2022-09-09T12:01:34;99660.06;;;24.10;100.00
4022;BME280;2025;48.260;16.432;2022-09-09T12:04:30;99656.91;;;24.56;100.00
4022;BME280;2025;48.260;16.432;2022-09-09T12:07:00;99661.09;;;24.62;100.00
4022;BME280;2025;48.260;16.432;2022-09-09T12:09:38;99659.78;;;24.35;100.00
4022;BME280;2025;48.260;16.432;2022-09-09T12:12:23;99658.53;;;23.85;100.00
4022;BME280;2025;48.260;16.432;2022-09-09T12:15:18;99654.06;;;23.67;100.00
4022;BME280;2025;48.260;16.432;2022-09-09T12:17:49;99645.88;;;23.70;100.00
4022;BME280;2025;48.260;16.432;2022-09-09T12:20:19;99649.78;;;24.00;100.00
4022;BME280;2025;48.260;16.432;2022-09-09T12:23:08;99640.25;;;24.33;100.00
4022;BME280;2025;48.260;16.432;2022-09-09T12:28:43;99627.38;;;24.75;94.01
4022;BME280;2025;48.260;16.432;2022-09-09T12:31:16;99628.06;;;24.44;100.00
4022;BME280;2025;48.260;16.432;2022-09-09T12:33:46;99624.38;;;24.81;99.13
4022;BME280;2025;48.260;16.432;2022-09-09T12:36:16;99622.94;;;24.57;89.14
4022;BME280;2025;48.260;16.432;2022-09-09T12:38:45;99633.66;;;24.57;89.54
4022;BME280;2025;48.260;16.432;2022-09-09T12:41:19;99621.44;;;24.86;96.20
4022;BME280;2025;48.260;16.432;2022-09-09T12:43:47;99618.69;;;24.87;100.00
4022;BME280;2025;48.260;16.432;2022-09-09T12:46:22;99623.81;;;24.40;100.00
4022;BME280;2025;48.260;16.432;2022-09-09T12:48:54;99630.31;;;24.35;97.87
4022;BME280;2025;48.260;16.432;2022-09-09T12:51:25;99616.03;;;23.79;98.56
4022;BME280;2025;48.260;16.432;2022-09-09T12:53:52;99618.50;;;23.65;100.00
4022;BME280;2025;48.260;16.432;2022-09-09T12:56:21;99606.84;;;23.66;100.00
4022;BME280;2025;48.260;16.432;2022-09-09T12:58:51;99615.38;;;23.55;99.66
4022;BME280;2025;48.260;16.432;2022-09-09T13:01:22;99609.59;;;23.64;100.00
4022;BME280;2025;48.260;16.432;2022-09-09T13:03:50;99602.88;;;23.56;100.00
4022;BME280;2025;48.260;16.432;2022-09-09T13:06:21;99599.88;;;23.43;92.29
4022;BME280;2025;48.260;16.432;2022-09-09T13:08:50;99598.13;;;23.42;95.13
4022;BME280;2025;48.260;16.432;2022-09-09T13:11:19;99590.69;;;23.49;99.33
4022;BME280;2025;48.260;16.432;2022-09-09T13:13:52;99582.09;;;23.42;100.00
4022;BME280;2025;48.260;16.432;2022-09-09T13:16:24;99589.53;;;23.35;99.09
4022;BME280;2025;48.260;16.432;2022-09-09T13:18:52;99584.47;;;23.29;100.00
4022;BME280;2025;48.260;16.432;2022-09-09T13:21:33;99576.16;;;23.17;99.06
4022;BME280;2025;48.260;16.432;2022-09-09T13:24:00;99573.75;;;23.11;100.00
4022;BME280;2025;48.260;16.432;2022-09-09T13:26:30;99561.53;;;23.05;100.00
4022;BME280;2025;48.260;16.432;2022-09-09T13:29:09;99564.22;;;23.05;100.00
4022;BME280;2025;48.260;16.432;2022-09-09T13:31:43;99560.63;;;22.86;100.00
4022;BME280;2025;48.260;16.432;2022-09-09T13:34:12;99568.59;;;22.87;100.00